sensor_id;sensor_type;location;lat;lon;timestamp;temperature;humidity
44461;DHT22;30162;53.642;10.640;2023-02-27T00:01:54;3.30;86.80
44461;DHT22;30162;53.642;10.640;2023-02-27T00:04:20;3.30;87.20
44461;DHT22;30162;53.642;10.640;2023-02-27T00:06:45;3.20;87.30
44461;DHT22;30162;53.642;10.640;2023-02-27T00:09:11;3.30;86.80
44461;DHT22;30162;53.642;10.640;2023-02-27T00:11:36;3.20;86.80
44461;DHT22;30162;53.642;10.640;2023-02-27T00:14:03;3.10;87.40
44461;DHT22;30162;53.642;10.640;2023-02-27T00:16:28;3.20;87.50
44461;DHT22;30162;53.642;10.640;2023-02-27T00:18:54;3.20;87.60
44461;DHT22;30162;53.642;10.640;2023-02-27T00:21:21;3.20;87.80
44461;DHT22;30162;53.642;10.640;2023-02-27T00:23:47;3.30;87.40
44461;DHT22;30162;53.642;10.640;2023-02-27T00:26:12;3.30;87.40
44461;DHT22;30162;53.642;10.640;2023-02-27T00:28:38;3.20;87.20
44461;DHT22;30162;53.642;10.640;2023-02-27T00:31:03;3.20;87.20
44461;DHT22;30162;53.642;10.640;2023-02-27T00:33:29;3.20;87.20
44461;DHT22;30162;53.642;10.640;2023-02-27T00:35:55;3.20;87.00
44461;DHT22;30162;53.642;10.640;2023-02-27T00:38:21;3.00;87.30
44461;DHT22;30162;53.642;10.640;2023-02-27T00:40:46;3.00;87.80
44461;DHT22;30162;53.642;10.640;2023-02-27T00:43:12;2.80;88.10
44461;DHT22;30162;53.642;10.640;2023-02-27T00:45:37;2.80;88.70
44461;DHT22;30162;53.642;10.640;2023-02-27T00:48:03;2.70;89.00
44461;DHT22;30162;53.642;10.640;2023-02-27T00:50:28;2.80;88.60
44461;DHT22;30162;53.642;10.640;2023-02-27T00:52:54;2.80;88.80
44461;DHT22;30162;53.642;10.640;2023-02-27T00:55:19;2.80;88.90
44461;DHT22;30162;53.642;10.640;2023-02-27T00:57:44;2.70;88.60
44461;DHT22;30162;53.642;10.640;2023-02-27T01:00:10;2.70;88.80
44461;DHT22;30162;53.642;10.640;2023-02-27T01:02:36;2.70;89.10
44461;DHT22;30162;53.642;10.640;2023-02-27T01:05:01;2.70;89.60
44461;DHT22;30162;53.642;10.640;2023-02-27T01:07:27;2.80;89.10
44461;DHT22;30162;53.642;10.640;2023-02-27T01:09:53;2.80;89.00
44461;DHT22;30162;53.642;10.640;2023-02-27T01:12:18;2.80;88.90
44461;DHT22;30162;53.642;10.640;2023-02-27T01:14:44;2.90;88.80
44461;DHT22;30162;53.642;10.640;2023-02-27T01:17:09;2.90;88.80
44461;DHT22;30162;53.642;10.640;2023-02-27T01:19:35;2.90;88.80
44461;DHT22;30162;53.642;10.640;2023-02-27T01:22:00;2.70;88.60
44461;DHT22;30162;53.642;10.640;2023-02-27T01:24:26;2.60;89.90
44461;DHT22;30162;53.642;10.640;2023-02-27T01:26:51;2.40;90.00
44461;DHT22;30162;53.642;10.640;2023-02-27T01:29:17;2.00;90.40
44461;DHT22;30162;53.642;10.640;2023-02-27T01:31:43;1.90;90.90
44461;DHT22;30162;53.642;10.640;2023-02-27T01:34:08;1.90;91.30
44461;DHT22;30162;53.642;10.640;2023-02-27T01:36:34;2.10;91.20
44461;DHT22;30162;53.642;10.640;2023-02-27T01:38:59;2.20;91.00
44461;DHT22;30162;53.642;10.640;2023-02-27T01:41:25;2.50;90.70
44461;DHT22;30162;53.642;10.640;2023-02-27T01:46:22;2.70;90.10
44461;DHT22;30162;53.642;10.640;2023-02-27T01:48:48;2.70;89.50
44461;DHT22;30162;53.642;10.640;2023-02-27T01:51:15;2.60;89.30
44461;DHT22;30162;53.642;10.640;2023-02-27T01:53:43;2.50;89.80
44461;DHT22;30162;53.642;10.640;2023-02-27T01:56:13;2.40;89.80
44461;DHT22;30162;53.642;10.640;2023-02-27T01:58:41;2.40;90.30
44461;DHT22;30162;53.642;10.640;2023-02-27T02:01:07;2.40;90.20
44461;DHT22;30162;53.642;10.640;2023-02-27T02:05:58;2.60;90.10
44461;DHT22;30162;53.642;10.640;2023-02-27T02:08:26;2.60;90.00
44461;DHT22;30162;53.642;10.640;2023-02-27T02:10:53;2.50;89.30
44461;DHT22;30162;53.642;10.640;2023-02-27T02:13:20;2.50;89.90
44461;DHT22;30162;53.642;10.640;2023-02-27T02:15:52;2.40;90.00
44461;DHT22;30162;53.642;10.640;2023-02-27T02:18:30;2.40;90.00
44461;DHT22;30162;53.642;10.640;2023-02-27T02:23:55;2.30;90.10
44461;DHT22;30162;53.642;10.640;2023-02-27T02:26:28;2.20;90.20
44461;DHT22;30162;53.642;10.640;2023-02-27T02:37:07;2.20;90.40
44461;DHT22;30162;53.642;10.640;2023-02-27T02:44:56;2.20;90.50
44461;DHT22;30162;53.642;10.640;2023-02-27T02:50:10;2.20;90.70
44461;DHT22;30162;53.642;10.640;2023-02-27T02:55:16;2.30;90.50
44461;DHT22;30162;53.642;10.640;2023-02-27T02:57:45;2.40;90.30
44461;DHT22;30162;53.642;10.640;2023-02-27T03:00:17;2.30;90.40
44461;DHT22;30162;53.642;10.640;2023-02-27T03:02:45;2.20;90.30
44461;DHT22;30162;53.642;10.640;2023-02-27T03:05:13;2.20;90.50
44461;DHT22;30162;53.642;10.640;2023-02-27T03:07:46;2.10;90.60
44461;DHT22;30162;53.642;10.640;2023-02-27T03:13:22;2.20;90.50
44461;DHT22;30162;53.642;10.640;2023-02-27T03:15:57;2.10;90.60
44461;DHT22;30162;53.642;10.640;2023-02-27T03:18:24;2.10;90.80
44461;DHT22;30162;53.642;10.640;2023-02-27T03:21:03;2.10;90.80
44461;DHT22;30162;53.642;10.640;2023-02-27T03:23:32;2.20;90.70
44461;DHT22;30162;53.642;10.640;2023-02-27T03:25:59;2.10;90.50
44461;DHT22;30162;53.642;10.640;2023-02-27T03:28:26;2.10;90.50
44461;DHT22;30162;53.642;10.640;2023-02-27T03:30:56;2.10;90.60
44461;DHT22;30162;53.642;10.640;2023-02-27T03:33:30;2.10;90.50
44461;DHT22;30162;53.642;10.640;2023-02-27T03:38:35;2.10;90.50
44461;DHT22;30162;53.642;10.640;2023-02-27T03:41:18;2.10;90.50
44461;DHT22;30162;53.642;10.640;2023-02-27T03:43:50;2.10;90.50
44461;DHT22;30162;53.642;10.640;2023-02-27T03:46:20;2.10;90.50
44461;DHT22;30162;53.642;10.640;2023-02-27T03:48:46;2.10;90.50
44461;DHT22;30162;53.642;10.640;2023-02-27T03:51:12;2.10;90.50
44461;DHT22;30162;53.642;10.640;2023-02-27T03:56:13;2.00;90.50
44461;DHT22;30162;53.642;10.640;2023-02-27T03:58:39;1.90;90.70
44461;DHT22;30162;53.642;10.640;2023-02-27T04:01:05;1.90;90.70
44461;DHT22;30162;53.642;10.640;2023-02-27T04:03:31;2.00;90.80
44461;DHT22;30162;53.642;10.640;2023-02-27T04:05:58;2.00;90.90
44461;DHT22;30162;53.642;10.640;2023-02-27T04:08:49;2.00;90.80
44461;DHT22;30162;53.642;10.640;2023-02-27T04:16:38;1.80;90.70
44461;DHT22;30162;53.642;10.640;2023-02-27T04:27:19;1.90;91.20
44461;DHT22;30162;53.642;10.640;2023-02-27T04:29:52;1.90;91.10
44461;DHT22;30162;53.642;10.640;2023-02-27T04:34:58;1.90;91.00
44461;DHT22;30162;53.642;10.640;2023-02-27T04:39:53;1.80;90.80
44461;DHT22;30162;53.642;10.640;2023-02-27T04:42:22;1.80;91.10
44461;DHT22;30162;53.642;10.640;2023-02-27T04:44:49;1.80;91.10
44461;DHT22;30162;53.642;10.640;2023-02-27T04:47:15;1.80;91.00
44461;DHT22;30162;53.642;10.640;2023-02-27T04:49:43;1.90;91.10
44461;DHT22;30162;53.642;10.640;2023-02-27T04:52:21;1.90;90.90
44461;DHT22;30162;53.642;10.640;2023-02-27T04:57:33;1.80;91.10
44461;DHT22;30162;53.642;10.640;2023-02-27T05:00:02;1.80;91.10
44461;DHT22;30162;53.642;10.640;2023-02-27T05:02:31;1.80;91.20
44461;DHT22;30162;53.642;10.640;2023-02-27T05:04:58;1.80;90.80
44461;DHT22;30162;53.642;10.640;2023-02-27T05:07:26;1.80;91.00
44461;DHT22;30162;53.642;10.640;2023-02-27T05:10:01;1.90;91.20
44461;DHT22;30162;53.642;10.640;2023-02-27T05:15:12;2.00;90.80
44461;DHT22;30162;53.642;10.640;2023-02-27T05:17:43;2.10;91.00
44461;DHT22;30162;53.642;10.640;2023-02-27T05:20:11;1.90;91.10
44461;DHT22;30162;53.642;10.640;2023-02-27T05:32:56;2.10;91.40
44461;DHT22;30162;53.642;10.640;2023-02-27T05:35:24;2.20;91.20
44461;DHT22;30162;53.642;10.640;2023-02-27T05:38:05;2.10;91.10
44461;DHT22;30162;53.642;10.640;2023-02-27T05:40:43;2.00;91.20
44461;DHT22;30162;53.642;10.640;2023-02-27T05:45:39;1.80;91.30
44461;DHT22;30162;53.642;10.640;2023-02-27T05:48:16;1.80;91.60
44461;DHT22;30162;53.642;10.640;2023-02-27T05:50:43;1.80;91.60
44461;DHT22;30162;53.642;10.640;2023-02-27T05:53:10;1.80;91.90
44461;DHT22;30162;53.642;10.640;2023-02-27T05:55:40;1.90;91.90
44461;DHT22;30162;53.642;10.640;2023-02-27T06:00:52;1.90;91.70
44461;DHT22;30162;53.642;10.640;2023-02-27T06:03:18;1.90;91.70
44461;DHT22;30162;53.642;10.640;2023-02-27T06:05:44;1.90;91.40
44461;DHT22;30162;53.642;10.640;2023-02-27T06:08:10;2.00;91.70
44461;DHT22;30162;53.642;10.640;2023-02-27T06:10:36;2.10;91.50
44461;DHT22;30162;53.642;10.640;2023-02-27T06:13:02;2.00;91.20
44461;DHT22;30162;53.642;10.640;2023-02-27T06:15:28;1.90;91.20
44461;DHT22;30162;53.642;10.640;2023-02-27T06:17:53;1.90;91.30
44461;DHT22;30162;53.642;10.640;2023-02-27T06:20:20;2.00;91.60
44461;DHT22;30162;53.642;10.640;2023-02-27T06:22:46;1.90;91.30
44461;DHT22;30162;53.642;10.640;2023-02-27T06:25:11;1.80;91.30
44461;DHT22;30162;53.642;10.640;2023-02-27T06:27:37;1.80;91.60
44461;DHT22;30162;53.642;10.640;2023-02-27T06:30:03;1.70;91.70
44461;DHT22;30162;53.642;10.640;2023-02-27T06:32:31;1.90;92.00
44461;DHT22;30162;53.642;10.640;2023-02-27T06:34:57;2.00;91.90
44461;DHT22;30162;53.642;10.640;2023-02-27T06:37:22;2.00;91.50
44461;DHT22;30162;53.642;10.640;2023-02-27T06:39:48;2.00;91.60
44461;DHT22;30162;53.642;10.640;2023-02-27T06:42:14;1.90;91.80
44461;DHT22;30162;53.642;10.640;2023-02-27T06:44:39;1.90;91.90
44461;DHT22;30162;53.642;10.640;2023-02-27T06:47:05;2.00;91.90
44461;DHT22;30162;53.642;10.640;2023-02-27T06:49:30;2.00;91.60
44461;DHT22;30162;53.642;10.640;2023-02-27T06:51:56;2.10;91.70
44461;DHT22;30162;53.642;10.640;2023-02-27T06:54:21;2.10;91.60
44461;DHT22;30162;53.642;10.640;2023-02-27T06:56:47;2.20;91.70
44461;DHT22;30162;53.642;10.640;2023-02-27T06:59:12;2.20;91.70
44461;DHT22;30162;53.642;10.640;2023-02-27T07:01:38;2.30;91.70
44461;DHT22;30162;53.642;10.640;2023-02-27T07:04:03;2.30;91.70
44461;DHT22;30162;53.642;10.640;2023-02-27T07:06:29;2.30;91.70
44461;DHT22;30162;53.642;10.640;2023-02-27T07:08:54;2.40;91.70
44461;DHT22;30162;53.642;10.640;2023-02-27T07:11:20;2.60;91.60
44461;DHT22;30162;53.642;10.640;2023-02-27T07:13:45;2.60;91.30
44461;DHT22;30162;53.642;10.640;2023-02-27T07:16:10;2.70;91.30
44461;DHT22;30162;53.642;10.640;2023-02-27T07:18:36;2.80;91.40
44461;DHT22;30162;53.642;10.640;2023-02-27T07:21:01;2.90;91.50
44461;DHT22;30162;53.642;10.640;2023-02-27T07:23:28;2.90;91.60
44461;DHT22;30162;53.642;10.640;2023-02-27T07:25:54;3.10;91.60
44461;DHT22;30162;53.642;10.640;2023-02-27T07:28:19;3.20;91.30
44461;DHT22;30162;53.642;10.640;2023-02-27T07:30:45;3.30;91.10
44461;DHT22;30162;53.642;10.640;2023-02-27T07:33:10;3.30;90.90
44461;DHT22;30162;53.642;10.640;2023-02-27T07:35:36;3.40;90.90
44461;DHT22;30162;53.642;10.640;2023-02-27T07:38:02;3.40;90.80
44461;DHT22;30162;53.642;10.640;2023-02-27T07:40:27;3.30;90.80
44461;DHT22;30162;53.642;10.640;2023-02-27T07:42:53;3.40;91.00
44461;DHT22;30162;53.642;10.640;2023-02-27T07:45:19;3.40;91.10
44461;DHT22;30162;53.642;10.640;2023-02-27T07:47:44;3.40;91.10
44461;DHT22;30162;53.642;10.640;2023-02-27T07:50:10;3.40;91.40
44461;DHT22;30162;53.642;10.640;2023-02-27T07:52:41;3.50;91.40
44461;DHT22;30162;53.642;10.640;2023-02-27T07:55:07;3.60;91.40
44461;DHT22;30162;53.642;10.640;2023-02-27T07:57:33;3.70;91.40
44461;DHT22;30162;53.642;10.640;2023-02-27T07:59:58;3.90;91.40
44461;DHT22;30162;53.642;10.640;2023-02-27T08:02:24;4.10;91.30
44461;DHT22;30162;53.642;10.640;2023-02-27T08:04:49;4.50;91.20
44461;DHT22;30162;53.642;10.640;2023-02-27T08:07:16;5.00;91.00
44461;DHT22;30162;53.642;10.640;2023-02-27T08:09:41;5.90;90.70
44461;DHT22;30162;53.642;10.640;2023-02-27T08:12:06;7.30;88.80
44461;DHT22;30162;53.642;10.640;2023-02-27T08:14:32;8.60;83.40
44461;DHT22;30162;53.642;10.640;2023-02-27T08:16:57;9.60;79.80
44461;DHT22;30162;53.642;10.640;2023-02-27T08:19:24;10.40;77.30
44461;DHT22;30162;53.642;10.640;2023-02-27T08:21:50;11.00;75.40
44461;DHT22;30162;53.642;10.640;2023-02-27T08:24:15;11.70;73.30
44461;DHT22;30162;53.642;10.640;2023-02-27T08:26:41;12.20;71.60
44461;DHT22;30162;53.642;10.640;2023-02-27T08:29:06;12.50;70.60
44461;DHT22;30162;53.642;10.640;2023-02-27T08:31:32;12.80;69.30
44461;DHT22;30162;53.642;10.640;2023-02-27T08:33:57;12.90;69.00
44461;DHT22;30162;53.642;10.640;2023-02-27T08:36:23;12.90;69.30
44461;DHT22;30162;53.642;10.640;2023-02-27T08:38:48;13.30;68.60
44461;DHT22;30162;53.642;10.640;2023-02-27T08:41:14;13.70;67.70
44461;DHT22;30162;53.642;10.640;2023-02-27T08:43:39;13.70;67.90
44461;DHT22;30162;53.642;10.640;2023-02-27T08:46:05;13.40;67.90
44461;DHT22;30162;53.642;10.640;2023-02-27T08:48:30;13.30;68.30
44461;DHT22;30162;53.642;10.640;2023-02-27T08:50:55;13.20;68.90
44461;DHT22;30162;53.642;10.640;2023-02-27T08:53:21;13.70;68.40
44461;DHT22;30162;53.642;10.640;2023-02-27T08:55:50;14.10;67.50
44461;DHT22;30162;53.642;10.640;2023-02-27T08:58:16;14.20;66.50
44461;DHT22;30162;53.642;10.640;2023-02-27T09:00:41;14.20;67.40
44461;DHT22;30162;53.642;10.640;2023-02-27T09:03:07;14.50;67.40
44461;DHT22;30162;53.642;10.640;2023-02-27T09:05:32;14.30;67.70
44461;DHT22;30162;53.642;10.640;2023-02-27T09:08:03;14.80;66.80
44461;DHT22;30162;53.642;10.640;2023-02-27T09:10:29;15.10;65.60
44461;DHT22;30162;53.642;10.640;2023-02-27T09:12:55;15.00;65.10
44461;DHT22;30162;53.642;10.640;2023-02-27T09:15:20;15.00;66.10
44461;DHT22;30162;53.642;10.640;2023-02-27T09:17:46;14.70;66.30
44461;DHT22;30162;53.642;10.640;2023-02-27T09:20:11;14.50;66.80
44461;DHT22;30162;53.642;10.640;2023-02-27T09:22:37;14.20;66.50
44461;DHT22;30162;53.642;10.640;2023-02-27T09:25:02;13.70;68.00
44461;DHT22;30162;53.642;10.640;2023-02-27T09:27:28;13.50;69.60
44461;DHT22;30162;53.642;10.640;2023-02-27T09:29:53;13.90;68.00
44461;DHT22;30162;53.642;10.640;2023-02-27T09:32:22;14.50;67.40
44461;DHT22;30162;53.642;10.640;2023-02-27T09:34:47;15.00;66.10
44461;DHT22;30162;53.642;10.640;2023-02-27T09:37:13;15.40;64.90
44461;DHT22;30162;53.642;10.640;2023-02-27T09:39:39;15.40;65.00
44461;DHT22;30162;53.642;10.640;2023-02-27T09:42:12;15.20;65.00
44461;DHT22;30162;53.642;10.640;2023-02-27T09:44:42;15.10;65.20
44461;DHT22;30162;53.642;10.640;2023-02-27T09:47:13;14.90;65.30
44461;DHT22;30162;53.642;10.640;2023-02-27T09:49:46;15.20;64.20
44461;DHT22;30162;53.642;10.640;2023-02-27T09:52:13;15.40;63.00
44461;DHT22;30162;53.642;10.640;2023-02-27T09:54:39;15.20;62.50
44461;DHT22;30162;53.642;10.640;2023-02-27T09:57:05;14.80;63.60
44461;DHT22;30162;53.642;10.640;2023-02-27T10:17:01;13.50;64.80
44461;DHT22;30162;53.642;10.640;2023-02-27T10:19:29;13.40;66.80
44461;DHT22;30162;53.642;10.640;2023-02-27T10:21:57;13.30;66.50
44461;DHT22;30162;53.642;10.640;2023-02-27T10:24:35;13.50;66.50
44461;DHT22;30162;53.642;10.640;2023-02-27T10:27:02;13.20;63.50
44461;DHT22;30162;53.642;10.640;2023-02-27T10:29:30;13.20;62.50
44461;DHT22;30162;53.642;10.640;2023-02-27T10:34:40;13.50;63.60
44461;DHT22;30162;53.642;10.640;2023-02-27T10:37:06;13.20;62.80
44461;DHT22;30162;53.642;10.640;2023-02-27T10:39:52;12.90;64.70
44461;DHT22;30162;53.642;10.640;2023-02-27T10:42:19;12.80;64.60
44461;DHT22;30162;53.642;10.640;2023-02-27T10:44:46;13.00;64.20
44461;DHT22;30162;53.642;10.640;2023-02-27T10:47:17;13.00;63.20
44461;DHT22;30162;53.642;10.640;2023-02-27T10:49:45;12.90;62.90
44461;DHT22;30162;53.642;10.640;2023-02-27T10:52:11;12.40;62.90
44461;DHT22;30162;53.642;10.640;2023-02-27T10:54:37;12.10;63.10
44461;DHT22;30162;53.642;10.640;2023-02-27T10:57:25;11.80;64.60
44461;DHT22;30162;53.642;10.640;2023-02-27T10:59:52;11.70;65.90
44461;DHT22;30162;53.642;10.640;2023-02-27T11:02:38;11.80;65.90
44461;DHT22;30162;53.642;10.640;2023-02-27T11:08:12;11.70;67.30
44461;DHT22;30162;53.642;10.640;2023-02-27T11:10:52;11.60;66.30
44461;DHT22;30162;53.642;10.640;2023-02-27T11:13:18;11.60;66.90
44461;DHT22;30162;53.642;10.640;2023-02-27T11:15:45;11.70;66.70
44461;DHT22;30162;53.642;10.640;2023-02-27T11:18:25;11.70;67.30
44461;DHT22;30162;53.642;10.640;2023-02-27T11:20:53;11.60;68.80
44461;DHT22;30162;53.642;10.640;2023-02-27T11:23:20;11.70;67.00
44461;DHT22;30162;53.642;10.640;2023-02-27T11:25:46;11.60;67.90
44461;DHT22;30162;53.642;10.640;2023-02-27T11:28:12;11.70;68.60
44461;DHT22;30162;53.642;10.640;2023-02-27T11:30:39;11.70;68.90
44461;DHT22;30162;53.642;10.640;2023-02-27T11:33:09;11.80;67.30
44461;DHT22;30162;53.642;10.640;2023-02-27T11:35:39;11.90;67.20
44461;DHT22;30162;53.642;10.640;2023-02-27T11:38:26;11.90;65.90
44461;DHT22;30162;53.642;10.640;2023-02-27T11:40:54;11.90;66.30
44461;DHT22;30162;53.642;10.640;2023-02-27T11:43:21;12.20;66.40
44461;DHT22;30162;53.642;10.640;2023-02-27T11:45:52;12.30;65.70
44461;DHT22;30162;53.642;10.640;2023-02-27T11:56:08;12.50;63.20
44461;DHT22;30162;53.642;10.640;2023-02-27T11:58:36;12.40;63.50
44461;DHT22;30162;53.642;10.640;2023-02-27T12:01:08;12.10;63.50
44461;DHT22;30162;53.642;10.640;2023-02-27T12:03:48;11.90;62.70
44461;DHT22;30162;53.642;10.640;2023-02-27T12:06:18;11.70;64.20
44461;DHT22;30162;53.642;10.640;2023-02-27T12:08:51;11.40;64.60
44461;DHT22;30162;53.642;10.640;2023-02-27T12:11:35;11.40;64.70
44461;DHT22;30162;53.642;10.640;2023-02-27T12:14:14;11.30;62.80
44461;DHT22;30162;53.642;10.640;2023-02-27T12:16:43;11.10;63.70
44461;DHT22;30162;53.642;10.640;2023-02-27T12:21:45;11.40;62.90
44461;DHT22;30162;53.642;10.640;2023-02-27T12:24:25;11.40;63.20
44461;DHT22;30162;53.642;10.640;2023-02-27T12:27:12;11.80;62.80
44461;DHT22;30162;53.642;10.640;2023-02-27T12:29:40;11.90;62.30
44461;DHT22;30162;53.642;10.640;2023-02-27T12:34:37;11.80;64.00
44461;DHT22;30162;53.642;10.640;2023-02-27T12:37:07;11.70;62.70
44461;DHT22;30162;53.642;10.640;2023-02-27T12:39:34;11.60;62.60
44461;DHT22;30162;53.642;10.640;2023-02-27T12:47:34;11.80;59.60
44461;DHT22;30162;53.642;10.640;2023-02-27T12:50:04;11.90;58.60
44461;DHT22;30162;53.642;10.640;2023-02-27T13:00:13;11.30;60.00
44461;DHT22;30162;53.642;10.640;2023-02-27T13:05:12;11.10;61.90
44461;DHT22;30162;53.642;10.640;2023-02-27T13:10:18;11.40;58.80
44461;DHT22;30162;53.642;10.640;2023-02-27T13:12:53;11.20;60.40
44461;DHT22;30162;53.642;10.640;2023-02-27T13:15:22;11.00;59.60
44461;DHT22;30162;53.642;10.640;2023-02-27T13:25:13;10.90;60.50
44461;DHT22;30162;53.642;10.640;2023-02-27T13:27:47;11.00;61.40
44461;DHT22;30162;53.642;10.640;2023-02-27T13:32:43;11.00;62.50
44461;DHT22;30162;53.642;10.640;2023-02-27T13:35:22;10.80;63.00
44461;DHT22;30162;53.642;10.640;2023-02-27T13:42:54;11.00;62.40
44461;DHT22;30162;53.642;10.640;2023-02-27T13:48:17;10.90;63.60
44461;DHT22;30162;53.642;10.640;2023-02-27T13:50:49;10.90;64.30
44461;DHT22;30162;53.642;10.640;2023-02-27T13:53:16;10.80;63.70
44461;DHT22;30162;53.642;10.640;2023-02-27T13:55:42;10.90;63.90
44461;DHT22;30162;53.642;10.640;2023-02-27T13:58:11;10.90;63.90
44461;DHT22;30162;53.642;10.640;2023-02-27T14:00:39;11.10;63.50
44461;DHT22;30162;53.642;10.640;2023-02-27T14:03:08;11.00;63.90
44461;DHT22;30162;53.642;10.640;2023-02-27T14:05:42;10.90;64.20
44461;DHT22;30162;53.642;10.640;2023-02-27T14:10:36;10.50;65.30
44461;DHT22;30162;53.642;10.640;2023-02-27T14:13:03;10.80;64.90
44461;DHT22;30162;53.642;10.640;2023-02-27T14:17:55;11.30;64.70
44461;DHT22;30162;53.642;10.640;2023-02-27T14:23:36;11.50;64.60
44461;DHT22;30162;53.642;10.640;2023-02-27T14:25:48;11.60;63.10
44461;DHT22;30162;53.642;10.640;2023-02-27T14:28:17;11.40;62.90
44461;DHT22;30162;53.642;10.640;2023-02-27T14:30:53;11.40;63.10
44461;DHT22;30162;53.642;10.640;2023-02-27T14:33:21;11.50;63.70
44461;DHT22;30162;53.642;10.640;2023-02-27T14:35:54;11.40;63.20
44461;DHT22;30162;53.642;10.640;2023-02-27T14:38:20;11.50;62.80
44461;DHT22;30162;53.642;10.640;2023-02-27T14:40:55;11.30;61.90
44461;DHT22;30162;53.642;10.640;2023-02-27T14:43:27;11.30;61.20
44461;DHT22;30162;53.642;10.640;2023-02-27T14:45:53;11.10;62.30
44461;DHT22;30162;53.642;10.640;2023-02-27T14:48:22;11.00;62.20
44461;DHT22;30162;53.642;10.640;2023-02-27T14:50:51;10.80;62.80
44461;DHT22;30162;53.642;10.640;2023-02-27T14:53:24;10.80;63.70
44461;DHT22;30162;53.642;10.640;2023-02-27T14:55:53;10.70;64.00
44461;DHT22;30162;53.642;10.640;2023-02-27T14:58:20;10.60;63.90
44461;DHT22;30162;53.642;10.640;2023-02-27T15:00:55;10.60;63.60
44461;DHT22;30162;53.642;10.640;2023-02-27T15:03:26;10.60;64.40
44461;DHT22;30162;53.642;10.640;2023-02-27T15:05:54;10.70;63.90
44461;DHT22;30162;53.642;10.640;2023-02-27T15:08:25;10.50;63.30
44461;DHT22;30162;53.642;10.640;2023-02-27T15:10:52;10.20;63.50
44461;DHT22;30162;53.642;10.640;2023-02-27T15:13:29;10.20;64.70
44461;DHT22;30162;53.642;10.640;2023-02-27T15:18:59;10.10;63.30
44461;DHT22;30162;53.642;10.640;2023-02-27T15:21:26;10.30;63.90
44461;DHT22;30162;53.642;10.640;2023-02-27T15:23:58;10.40;63.30
44461;DHT22;30162;53.642;10.640;2023-02-27T15:26:23;10.30;62.60
44461;DHT22;30162;53.642;10.640;2023-02-27T15:28:49;10.20;63.10
44461;DHT22;30162;53.642;10.640;2023-02-27T15:31:21;10.20;63.20
44461;DHT22;30162;53.642;10.640;2023-02-27T15:33:48;10.20;63.00
44461;DHT22;30162;53.642;10.640;2023-02-27T15:36:24;10.30;63.30
44461;DHT22;30162;53.642;10.640;2023-02-27T15:41:30;10.30;63.00
44461;DHT22;30162;53.642;10.640;2023-02-27T15:43:56;10.00;63.30
44461;DHT22;30162;53.642;10.640;2023-02-27T15:46:22;10.00;63.50
44461;DHT22;30162;53.642;10.640;2023-02-27T15:48:48;9.90;63.50
44461;DHT22;30162;53.642;10.640;2023-02-27T15:51:13;9.90;62.60
44461;DHT22;30162;53.642;10.640;2023-02-27T15:53:39;9.70;62.10
44461;DHT22;30162;53.642;10.640;2023-02-27T15:56:10;9.60;62.60
44461;DHT22;30162;53.642;10.640;2023-02-27T15:58:37;9.70;62.40
44461;DHT22;30162;53.642;10.640;2023-02-27T16:01:07;9.80;62.10
44461;DHT22;30162;53.642;10.640;2023-02-27T16:03:37;9.90;62.00
44461;DHT22;30162;53.642;10.640;2023-02-27T16:06:25;9.70;62.50
44461;DHT22;30162;53.642;10.640;2023-02-27T16:08:51;9.60;62.60
44461;DHT22;30162;53.642;10.640;2023-02-27T16:11:26;9.50;62.90
44461;DHT22;30162;53.642;10.640;2023-02-27T16:13:52;9.40;63.20
44461;DHT22;30162;53.642;10.640;2023-02-27T16:18:47;9.20;63.90
44461;DHT22;30162;53.642;10.640;2023-02-27T16:21:14;9.00;64.70
44461;DHT22;30162;53.642;10.640;2023-02-27T16:23:41;8.80;64.50
44461;DHT22;30162;53.642;10.640;2023-02-27T16:33:49;8.70;65.70
44461;DHT22;30162;53.642;10.640;2023-02-27T16:36:18;8.60;66.10
44461;DHT22;30162;53.642;10.640;2023-02-27T16:38:44;8.50;66.10
44461;DHT22;30162;53.642;10.640;2023-02-27T16:41:10;8.50;66.90
44461;DHT22;30162;53.642;10.640;2023-02-27T16:43:36;8.50;66.90
44461;DHT22;30162;53.642;10.640;2023-02-27T16:46:02;8.30;67.10
44461;DHT22;30162;53.642;10.640;2023-02-27T16:48:27;8.30;67.40
44461;DHT22;30162;53.642;10.640;2023-02-27T16:50:53;8.20;67.70
44461;DHT22;30162;53.642;10.640;2023-02-27T16:53:18;8.10;68.30
44461;DHT22;30162;53.642;10.640;2023-02-27T16:55:44;8.00;68.60
44461;DHT22;30162;53.642;10.640;2023-02-27T16:58:13;7.90;69.10
44461;DHT22;30162;53.642;10.640;2023-02-27T17:00:39;7.80;69.10
44461;DHT22;30162;53.642;10.640;2023-02-27T17:03:05;7.70;69.70
44461;DHT22;30162;53.642;10.640;2023-02-27T17:05:30;7.50;69.20
44461;DHT22;30162;53.642;10.640;2023-02-27T17:07:56;7.20;70.30
44461;DHT22;30162;53.642;10.640;2023-02-27T17:10:21;6.90;70.50
44461;DHT22;30162;53.642;10.640;2023-02-27T17:12:48;6.80;70.90
44461;DHT22;30162;53.642;10.640;2023-02-27T17:15:14;6.60;71.00
44461;DHT22;30162;53.642;10.640;2023-02-27T17:17:40;6.40;71.60
44461;DHT22;30162;53.642;10.640;2023-02-27T17:20:05;6.40;71.70
44461;DHT22;30162;53.642;10.640;2023-02-27T17:22:38;6.10;71.90
44461;DHT22;30162;53.642;10.640;2023-02-27T17:25:04;6.20;72.80
44461;DHT22;30162;53.642;10.640;2023-02-27T17:27:30;6.60;72.30
44461;DHT22;30162;53.642;10.640;2023-02-27T17:29:55;6.60;71.80
44461;DHT22;30162;53.642;10.640;2023-02-27T17:32:21;6.80;71.60
44461;DHT22;30162;53.642;10.640;2023-02-27T17:34:46;6.50;71.90
44461;DHT22;30162;53.642;10.640;2023-02-27T17:37:11;6.10;73.40
44461;DHT22;30162;53.642;10.640;2023-02-27T17:39:37;5.90;73.50
44461;DHT22;30162;53.642;10.640;2023-02-27T17:42:03;5.70;74.70
44461;DHT22;30162;53.642;10.640;2023-02-27T17:44:28;6.20;74.50
44461;DHT22;30162;53.642;10.640;2023-02-27T17:46:54;6.50;73.60
44461;DHT22;30162;53.642;10.640;2023-02-27T17:49:19;6.60;72.90
44461;DHT22;30162;53.642;10.640;2023-02-27T17:51:45;6.60;73.20
44461;DHT22;30162;53.642;10.640;2023-02-27T17:54:10;6.60;73.20
44461;DHT22;30162;53.642;10.640;2023-02-27T17:56:36;6.40;73.90
44461;DHT22;30162;53.642;10.640;2023-02-27T17:59:02;6.20;74.50
44461;DHT22;30162;53.642;10.640;2023-02-27T18:01:27;6.20;74.30
44461;DHT22;30162;53.642;10.640;2023-02-27T18:03:53;6.10;74.70
44461;DHT22;30162;53.642;10.640;2023-02-27T18:06:19;6.30;74.90
44461;DHT22;30162;53.642;10.640;2023-02-27T18:08:45;6.50;74.70
44461;DHT22;30162;53.642;10.640;2023-02-27T18:11:11;6.60;74.40
44461;DHT22;30162;53.642;10.640;2023-02-27T18:13:37;6.50;74.80
44461;DHT22;30162;53.642;10.640;2023-02-27T18:16:03;6.60;75.00
44461;DHT22;30162;53.642;10.640;2023-02-27T18:18:29;6.60;75.60
44461;DHT22;30162;53.642;10.640;2023-02-27T18:20:58;6.60;75.00